createdAt,value
2022-12-08T00:00:56.864Z,12.52
2022-12-08T00:03:23.873Z,13.07
2022-12-08T00:06:05.147Z,12.35
2022-12-08T00:08:45.699Z,13.10
2022-12-08T00:11:13.461Z,12.23
2022-12-08T00:13:40.124Z,13.18
2022-12-08T00:16:07.105Z,12.43
2022-12-08T00:18:33.927Z,13.30
2022-12-08T00:21:00.775Z,11.85
2022-12-08T00:23:27.751Z,13.27
2022-12-08T00:25:55.740Z,11.27
2022-12-08T00:28:22.636Z,9.98
2022-12-08T00:30:49.235Z,10.35
2022-12-08T00:33:16.189Z,10.20
2022-12-08T00:35:43.473Z,10.73
2022-12-08T00:38:10.223Z,10.73
2022-12-08T00:40:37.291Z,9.45
2022-12-08T00:43:04.029Z,9.13
2022-12-08T00:45:30.911Z,9.20
2022-12-08T00:47:58.012Z,9.90
2022-12-08T00:50:24.776Z,9.07
2022-12-08T00:52:54.509Z,8.80
2022-12-08T00:55:21.147Z,9.05
2022-12-08T00:57:48.021Z,9.77
2022-12-08T01:00:14.947Z,9.85
2022-12-08T01:02:55.800Z,9.02
2022-12-08T01:05:23.024Z,8.95
2022-12-08T01:07:50.084Z,9.10
2022-12-08T01:10:17.056Z,8.55
2022-12-08T01:12:43.738Z,8.18
2022-12-08T01:15:10.515Z,8.52
2022-12-08T01:17:37.721Z,8.45
2022-12-08T01:20:05.259Z,8.43
2022-12-08T01:22:33.604Z,9.45
2022-12-08T01:25:00.759Z,8.40
2022-12-08T01:27:27.600Z,8.40
2022-12-08T01:29:54.375Z,8.10
2022-12-08T01:32:21.197Z,9.40
2022-12-08T01:34:47.788Z,9.73
2022-12-08T01:37:14.501Z,9.52
2022-12-08T01:39:41.540Z,8.75
2022-12-08T01:42:18.632Z,9.15
2022-12-08T01:44:45.881Z,8.68
2022-12-08T01:47:12.505Z,8.68
2022-12-08T01:49:39.113Z,8.38
2022-12-08T01:52:11.386Z,7.97
2022-12-08T01:54:44.757Z,8.32
2022-12-08T01:57:11.439Z,8.38
2022-12-08T01:59:49.540Z,9.13
2022-12-08T02:02:16.417Z,8.10
2022-12-08T02:04:43.208Z,8.10
2022-12-08T02:07:11.530Z,8.10
2022-12-08T02:09:38.836Z,8.05
2022-12-08T02:12:05.683Z,7.43
2022-12-08T02:14:32.678Z,7.25
2022-12-08T02:17:13.258Z,8.07
2022-12-08T02:19:42.685Z,7.55
2022-12-08T02:22:13.109Z,8.48
2022-12-08T02:24:42.831Z,7.45
2022-12-08T02:27:15.237Z,7.65
2022-12-08T02:29:47.555Z,7.40
2022-12-08T02:32:14.120Z,7.28
2022-12-08T02:34:49.683Z,7.70
2022-12-08T02:37:24.682Z,7.60
2022-12-08T02:39:54.994Z,8.93
2022-12-08T02:42:21.750Z,8.80
2022-12-08T02:44:53.295Z,9.13
2022-12-08T02:47:22.114Z,9.18
2022-12-08T02:49:49.103Z,9.15
2022-12-08T02:52:15.836Z,9.05
2022-12-08T02:54:44.433Z,7.65
2022-12-08T02:57:11.200Z,7.80
2022-12-08T02:59:40.739Z,7.80
2022-12-08T03:02:10.609Z,8.55
2022-12-08T03:04:46.193Z,7.57
2022-12-08T03:07:24.194Z,7.82
2022-12-08T03:10:03.020Z,8.05
2022-12-08T03:12:43.832Z,8.07
2022-12-08T03:15:12.962Z,7.75
2022-12-08T03:17:41.584Z,9.10
2022-12-08T03:20:10.550Z,8.70
2022-12-08T03:22:38.652Z,8.68
2022-12-08T03:25:05.549Z,9.90
2022-12-08T03:27:32.844Z,10.02
2022-12-08T03:30:00.161Z,9.82
2022-12-08T03:32:30.375Z,9.50
2022-12-08T03:34:58.184Z,9.55
2022-12-08T03:37:26.965Z,10.95
2022-12-08T03:39:53.689Z,10.38
2022-12-08T03:42:20.513Z,8.45
2022-12-08T03:44:47.168Z,10.45
2022-12-08T03:47:13.941Z,10.23
2022-12-08T03:49:41.368Z,9.73
2022-12-08T03:52:08.110Z,10.05
2022-12-08T03:54:34.706Z,8.98
2022-12-08T03:57:01.468Z,9.65
2022-12-08T03:59:28.385Z,9.45
2022-12-08T04:01:55.037Z,11.45
2022-12-08T04:04:21.886Z,11.73
2022-12-08T04:06:48.642Z,11.40
2022-12-08T04:09:15.426Z,11.68
2022-12-08T04:11:42.406Z,11.75
2022-12-08T04:14:09.165Z,11.68
2022-12-08T04:16:35.943Z,11.05
2022-12-08T04:19:02.715Z,10.80
2022-12-08T04:21:29.466Z,10.48
2022-12-08T04:24:00.992Z,10.43
2022-12-08T04:26:28.685Z,12.15
2022-12-08T04:28:55.623Z,12.55
2022-12-08T04:31:25.365Z,11.90
2022-12-08T04:33:52.282Z,11.90
2022-12-08T04:36:19.254Z,10.88
2022-12-08T04:38:45.973Z,11.70
2022-12-08T04:41:12.747Z,11.50
2022-12-08T04:43:39.822Z,11.80
2022-12-08T04:46:07.765Z,10.75
2022-12-08T04:48:34.985Z,10.95
2022-12-08T04:51:01.798Z,12.77
2022-12-08T04:53:28.601Z,12.13
2022-12-08T04:55:56.024Z,10.52
2022-12-08T04:58:22.919Z,10.70
2022-12-08T05:00:49.760Z,9.90
2022-12-08T05:03:17.024Z,9.60
2022-12-08T05:05:43.715Z,9.85
2022-12-08T05:08:19.640Z,10.02
2022-12-08T05:10:46.531Z,11.23
2022-12-08T05:13:13.361Z,10.82
2022-12-08T05:15:40.055Z,10.82
2022-12-08T05:18:07.520Z,12.63
2022-12-08T05:20:34.610Z,11.40
2022-12-08T05:23:01.603Z,13.48
2022-12-08T05:25:28.264Z,18.23
2022-12-08T05:28:06.132Z,20.92
2022-12-08T05:30:38.308Z,21.08
2022-12-08T05:33:04.985Z,19.88
2022-12-08T05:35:31.944Z,16.95
2022-12-08T05:37:58.804Z,16.85
2022-12-08T05:40:25.626Z,18.20
2022-12-08T05:42:53.077Z,21.17
2022-12-08T05:45:19.779Z,22.17
2022-12-08T05:47:46.405Z,18.67
2022-12-08T05:50:13.368Z,16.83
2022-12-08T05:52:40.130Z,14.65
2022-12-08T05:55:07.176Z,13.38
2022-12-08T05:57:33.889Z,14.90
2022-12-08T06:00:01.129Z,15.10
2022-12-08T06:02:28.710Z,15.75
2022-12-08T06:04:55.793Z,17.10
2022-12-08T06:07:22.791Z,14.55
2022-12-08T06:09:49.427Z,16.98
2022-12-08T06:12:16.420Z,15.55
2022-12-08T06:14:43.232Z,15.60
2022-12-08T06:17:10.002Z,14.65
2022-12-08T06:19:36.737Z,16.85
2022-12-08T06:22:03.665Z,17.05
2022-12-08T06:24:30.590Z,16.52
2022-12-08T06:26:57.552Z,17.23
2022-12-08T06:29:24.165Z,17.23
2022-12-08T06:31:52.395Z,18.98
2022-12-08T06:34:19.192Z,23.73
2022-12-08T06:36:46.038Z,50.25
2022-12-08T06:39:12.697Z,43.50
2022-12-08T06:41:59.381Z,37.05
2022-12-08T06:44:26.079Z,34.78
2022-12-08T06:46:52.833Z,26.20
2022-12-08T06:49:19.545Z,31.52
2022-12-08T06:51:46.166Z,26.85
2022-12-08T06:54:13.007Z,27.55
2022-12-08T06:56:39.888Z,26.52
2022-12-08T06:59:06.698Z,26.20
2022-12-08T07:01:33.641Z,25.08
2022-12-08T07:04:00.694Z,22.35
2022-12-08T07:06:27.413Z,19.73
2022-12-08T07:08:54.076Z,19.65
2022-12-08T07:11:22.276Z,19.10
2022-12-08T07:13:49.884Z,18.10
2022-12-08T07:16:16.690Z,17.63
2022-12-08T07:18:44.291Z,18.08
2022-12-08T07:21:11.955Z,21.38
2022-12-08T07:23:38.957Z,21.02
2022-12-08T07:26:06.643Z,17.90
2022-12-08T07:28:34.030Z,18.70
2022-12-08T07:31:00.885Z,19.50
2022-12-08T07:33:28.097Z,18.52
2022-12-08T07:35:55.647Z,18.33
2022-12-08T07:38:22.325Z,19.05
2022-12-08T07:40:49.059Z,20.30
2022-12-08T07:43:15.774Z,19.33
2022-12-08T07:45:42.728Z,20.40
2022-12-08T07:48:09.558Z,22.25
2022-12-08T07:50:36.371Z,24.27
2022-12-08T07:53:02.936Z,21.48
2022-12-08T07:55:29.652Z,21.23
2022-12-08T07:57:56.357Z,19.55
2022-12-08T08:00:23.207Z,22.17
2022-12-08T08:02:49.862Z,20.95
2022-12-08T08:05:16.743Z,20.50
2022-12-08T08:07:43.841Z,22.98
2022-12-08T08:10:11.706Z,17.67
2022-12-08T08:12:39.763Z,19.33
2022-12-08T08:15:07.738Z,20.17
2022-12-08T08:17:38.459Z,20.05
2022-12-08T08:20:08.865Z,22.00
2022-12-08T08:22:36.283Z,21.42
2022-12-08T08:25:03.406Z,17.27
2022-12-08T08:27:30.070Z,20.83
2022-12-08T08:29:56.882Z,22.30
2022-12-08T08:32:23.545Z,21.25
2022-12-08T08:34:50.889Z,22.23
2022-12-08T08:37:17.768Z,21.10
2022-12-08T08:39:44.409Z,22.33
2022-12-08T08:42:11.254Z,21.48
2022-12-08T08:44:39.227Z,18.83
2022-12-08T08:47:05.938Z,18.55
2022-12-08T08:49:32.669Z,19.98
2022-12-08T08:51:59.530Z,19.67
2022-12-08T08:54:26.405Z,18.52
2022-12-08T08:56:53.252Z,24.85
2022-12-08T08:59:22.944Z,18.83
2022-12-08T09:01:49.643Z,17.73
2022-12-08T09:04:16.536Z,17.00
2022-12-08T09:06:44.384Z,16.65
2022-12-08T09:09:11.755Z,15.25
2022-12-08T09:11:38.652Z,15.82
2022-12-08T09:14:06.073Z,15.80
2022-12-08T09:16:37.490Z,14.30
2022-12-08T09:19:07.489Z,13.88
2022-12-08T09:21:34.617Z,18.15
2022-12-08T09:24:01.436Z,15.98
2022-12-08T09:26:28.746Z,15.77
2022-12-08T09:28:56.277Z,15.55
2022-12-08T09:31:24.484Z,13.85
2022-12-08T09:33:54.414Z,14.05
2022-12-08T09:36:21.372Z,13.82
2022-12-08T09:38:49.227Z,12.82
2022-12-08T09:41:38.974Z,13.00
2022-12-08T09:44:24.125Z,13.65
2022-12-08T09:46:52.943Z,13.38
2022-12-08T09:52:04.307Z,13.15
2022-12-08T09:54:39.968Z,13.23
2022-12-08T09:57:08.775Z,14.07
2022-12-08T09:59:35.997Z,16.10
2022-12-08T10:02:03.163Z,15.40
2022-12-08T10:04:35.901Z,14.40
2022-12-08T10:07:16.523Z,13.05
2022-12-08T10:09:50.398Z,19.52
2022-12-08T10:12:17.265Z,22.07
2022-12-08T10:14:52.468Z,20.65
2022-12-08T10:17:26.953Z,17.52
2022-12-08T10:20:02.009Z,12.45
2022-12-08T10:22:33.311Z,11.77
2022-12-08T10:25:26.467Z,17.20
2022-12-08T10:27:54.384Z,16.63
2022-12-08T10:30:22.066Z,25.17
2022-12-08T10:32:50.546Z,16.58
2022-12-08T10:35:18.727Z,18.77
2022-12-08T10:37:59.645Z,13.38
2022-12-08T10:40:30.763Z,27.70
2022-12-08T10:43:02.200Z,18.85
2022-12-08T10:45:38.846Z,17.63
2022-12-08T10:48:17.583Z,16.48
2022-12-08T10:50:46.047Z,14.52
2022-12-08T10:53:20.662Z,13.50
2022-12-08T10:55:48.877Z,12.73
2022-12-08T10:58:30.496Z,11.85
2022-12-08T11:00:59.208Z,11.88
2022-12-08T11:03:30.505Z,12.55
2022-12-08T11:05:58.873Z,12.13
2022-12-08T11:08:27.213Z,12.82
2022-12-08T11:10:54.151Z,13.20
2022-12-08T11:13:26.396Z,13.57
2022-12-08T11:15:56.743Z,14.60
2022-12-08T11:18:27.065Z,12.95
2022-12-08T11:21:02.387Z,14.55
2022-12-08T11:23:29.948Z,18.27
2022-12-08T11:25:59.143Z,21.20
2022-12-08T11:28:33.023Z,18.52
2022-12-08T11:31:03.953Z,15.32
2022-12-08T11:33:30.741Z,16.40
2022-12-08T11:36:02.483Z,16.40
2022-12-08T11:38:30.133Z,19.52
2022-12-08T11:41:15.577Z,18.02
2022-12-08T11:43:47.266Z,22.70
2022-12-08T11:46:17.251Z,17.45
2022-12-08T11:48:53.386Z,15.38
2022-12-08T11:51:29.979Z,17.33
2022-12-08T11:54:07.166Z,16.35
2022-12-08T11:56:35.030Z,14.52
2022-12-08T11:59:03.513Z,15.98
2022-12-08T12:01:30.209Z,14.43
2022-12-08T12:04:02.071Z,14.85
2022-12-08T12:06:55.575Z,15.02
2022-12-08T12:09:22.635Z,15.73
2022-12-08T12:12:06.317Z,18.00
2022-12-08T12:14:51.124Z,18.13
2022-12-08T12:17:31.712Z,17.00
2022-12-08T12:20:00.708Z,14.63
2022-12-08T12:22:33.334Z,15.77
2022-12-08T12:25:01.715Z,15.13
2022-12-08T12:27:30.037Z,19.33
2022-12-08T12:29:59.061Z,22.55
2022-12-08T12:32:27.393Z,21.27
2022-12-08T12:34:56.899Z,17.10
2022-12-08T12:37:35.953Z,21.05
2022-12-08T12:40:07.609Z,17.33
2022-12-08T12:42:51.003Z,13.20
2022-12-08T12:45:17.926Z,15.48
2022-12-08T12:48:05.236Z,13.73
2022-12-08T12:50:39.862Z,15.32
2022-12-08T12:53:29.706Z,14.23
2022-12-08T12:55:56.447Z,14.77
2022-12-08T12:58:32.325Z,15.85
2022-12-08T13:01:17.090Z,13.60
2022-12-08T13:03:48.408Z,15.90
2022-12-08T13:06:15.379Z,19.15
2022-12-08T13:08:52.989Z,17.02
2022-12-08T13:11:20.081Z,33.33
2022-12-08T13:16:44.638Z,13.60
2022-12-08T13:19:16.972Z,14.02
2022-12-08T13:21:46.440Z,31.20
2022-12-08T13:24:31.191Z,14.65
2022-12-08T13:27:03.990Z,24.55
2022-12-08T13:29:35.272Z,25.45
2022-12-08T13:32:14.052Z,25.98
2022-12-08T13:34:45.035Z,41.63
2022-12-08T13:37:11.848Z,38.55
2022-12-08T13:39:55.575Z,31.58
2022-12-08T13:42:30.801Z,36.00
2022-12-08T13:45:21.285Z,46.22
2022-12-08T13:48:20.559Z,34.22
2022-12-08T13:52:15.755Z,30.80
2022-12-08T13:59:30.035Z,38.55
2022-12-08T14:02:17.274Z,30.25
2022-12-08T14:05:16.810Z,30.98
2022-12-08T14:07:33.973Z,34.65
2022-12-08T14:10:03.827Z,26.48
2022-12-08T14:12:31.518Z,37.60
2022-12-08T14:15:14.803Z,54.70
2022-12-08T14:17:41.892Z,27.77
2022-12-08T14:20:13.605Z,37.60
2022-12-08T14:22:41.169Z,40.35
2022-12-08T14:25:14.364Z,51.97
2022-12-08T14:27:41.197Z,39.67
2022-12-08T14:30:14.188Z,41.78
2022-12-08T14:32:45.428Z,39.75
2022-12-08T14:35:16.117Z,41.55
2022-12-08T14:37:43.781Z,49.47
2022-12-08T14:40:22.961Z,47.13
2022-12-08T14:42:52.026Z,35.03
2022-12-08T14:45:19.436Z,37.92
2022-12-08T14:47:46.294Z,33.72
2022-12-08T14:50:31.900Z,32.05
2022-12-08T14:52:59.397Z,32.17
2022-12-08T14:55:26.241Z,35.08
2022-12-08T14:57:52.980Z,32.63
2022-12-08T15:00:20.943Z,38.78
2022-12-08T15:02:47.866Z,40.90
2022-12-08T15:05:19.199Z,46.53
2022-12-08T15:07:59.444Z,41.22
2022-12-08T15:10:27.555Z,44.92
2022-12-08T15:13:01.508Z,42.40
2022-12-08T15:15:28.851Z,38.53
2022-12-08T15:18:02.531Z,45.35
2022-12-08T15:20:43.876Z,60.95
2022-12-08T15:23:19.685Z,42.33
2022-12-08T15:25:46.761Z,36.53
2022-12-08T15:28:14.426Z,49.22
2022-12-08T15:30:41.177Z,63.67
2022-12-08T15:33:08.008Z,61.13
2022-12-08T15:35:40.582Z,62.72
2022-12-08T15:38:12.166Z,76.50
2022-12-08T15:40:38.882Z,67.45
2022-12-08T15:43:05.513Z,79.88
2022-12-08T15:45:32.863Z,126.53
2022-12-08T15:47:59.786Z,98.93
2022-12-08T15:50:26.862Z,94.32
2022-12-08T15:53:03.225Z,104.60
2022-12-08T15:55:32.083Z,94.90
2022-12-08T16:00:53.406Z,62.05
2022-12-08T16:03:51.635Z,63.15
2022-12-08T16:06:57.368Z,76.78
2022-12-08T16:09:11.124Z,54.67
2022-12-08T16:12:09.973Z,79.93
2022-12-08T16:15:47.137Z,101.15
2022-12-08T16:17:37.258Z,68.20
2022-12-08T16:20:09.182Z,74.82
2022-12-08T16:22:56.814Z,94.13
2022-12-08T16:28:54.309Z,59.72
2022-12-08T16:31:23.362Z,70.13
2022-12-08T16:33:50.288Z,75.85
2022-12-08T16:36:17.085Z,70.57
2022-12-08T16:38:44.029Z,70.05
2022-12-08T16:41:27.334Z,58.80
2022-12-08T16:43:54.085Z,55.30
2022-12-08T16:46:23.951Z,93.20
2022-12-08T16:48:50.820Z,72.85
2022-12-08T16:51:27.717Z,75.30
2022-12-08T16:53:55.604Z,67.40
2022-12-08T16:56:26.380Z,70.07
2022-12-08T16:58:57.337Z,64.57
2022-12-08T17:01:24.378Z,58.55
2022-12-08T17:04:07.435Z,54.13
2022-12-08T17:06:43.106Z,61.00
2022-12-08T17:09:09.971Z,57.05
2022-12-08T17:11:43.006Z,52.45
2022-12-08T17:14:10.909Z,72.18
2022-12-08T17:16:48.024Z,76.63
2022-12-08T17:19:15.660Z,61.50
2022-12-08T17:21:42.924Z,77.97
2022-12-08T17:24:09.852Z,72.57
2022-12-08T17:26:37.175Z,47.78
2022-12-08T17:29:04.450Z,43.17
2022-12-08T17:31:32.618Z,54.03
2022-12-08T17:34:04.851Z,51.45
2022-12-08T17:36:31.791Z,40.03
2022-12-08T17:39:06.363Z,46.95
2022-12-08T17:41:33.342Z,48.60
2022-12-08T17:44:00.576Z,53.28
2022-12-08T17:46:27.470Z,67.32
2022-12-08T17:48:54.690Z,49.70
2022-12-08T17:51:21.585Z,112.13
2022-12-08T17:53:48.229Z,58.03
2022-12-08T17:56:16.485Z,40.47
2022-12-08T17:58:43.405Z,60.42
2022-12-08T18:01:11.229Z,71.40
2022-12-08T18:03:38.533Z,38.55
2022-12-08T18:06:08.384Z,54.60
2022-12-08T18:08:35.530Z,63.03
2022-12-08T18:11:02.758Z,48.67
2022-12-08T18:13:29.574Z,60.40
2022-12-08T18:15:56.253Z,50.25
2022-12-08T18:18:23.182Z,35.97
2022-12-08T18:20:50.189Z,54.35
2022-12-08T18:23:17.868Z,50.72
2022-12-08T18:25:45.376Z,44.42
2022-12-08T18:28:12.173Z,47.75
2022-12-08T18:30:39.891Z,40.80
2022-12-08T18:33:07.696Z,42.45
2022-12-08T18:35:34.571Z,54.45
2022-12-08T18:38:01.363Z,55.80
2022-12-08T18:40:28.457Z,56.25
2022-12-08T18:42:55.458Z,69.22
2022-12-08T18:45:22.955Z,46.45
2022-12-08T18:47:50.641Z,47.38
2022-12-08T18:50:17.644Z,51.33
2022-12-08T18:52:45.094Z,48.65
2022-12-08T18:55:11.982Z,44.33
2022-12-08T18:57:39.583Z,41.10
2022-12-08T19:00:07.370Z,41.85
2022-12-08T19:02:35.350Z,81.78
2022-12-08T19:05:02.125Z,89.82
2022-12-08T19:07:28.747Z,101.53
2022-12-08T19:09:56.334Z,48.72
2022-12-08T19:12:23.039Z,45.78
2022-12-08T19:14:49.706Z,53.80
2022-12-08T19:17:16.606Z,45.83
2022-12-08T19:19:43.359Z,41.47
2022-12-08T19:22:10.121Z,48.47
2022-12-08T19:24:36.798Z,40.92
2022-12-08T19:27:04.079Z,47.97
2022-12-08T19:29:30.986Z,37.03
2022-12-08T19:31:57.856Z,45.25
2022-12-08T19:34:24.710Z,40.33
2022-12-08T19:36:58.088Z,37.70
2022-12-08T19:39:38.705Z,42.60
2022-12-08T19:45:17.933Z,38.55
2022-12-08T19:47:44.951Z,38.90
2022-12-08T19:50:26.710Z,40.92
2022-12-08T19:52:53.590Z,40.88
2022-12-08T19:55:20.923Z,40.33
2022-12-08T19:57:47.741Z,34.13
2022-12-08T20:00:15.056Z,33.88
2022-12-08T20:02:42.227Z,37.47
2022-12-08T20:05:11.197Z,38.55
2022-12-08T20:07:38.633Z,32.97
2022-12-08T20:10:09.259Z,36.60
2022-12-08T20:12:36.038Z,36.10
2022-12-08T20:15:02.818Z,38.25
2022-12-08T20:17:29.748Z,37.80
2022-12-08T20:19:56.569Z,37.03
2022-12-08T20:22:23.396Z,45.70
2022-12-08T20:24:58.310Z,45.03
2022-12-08T20:27:29.141Z,41.95
2022-12-08T20:29:55.988Z,40.38
2022-12-08T20:32:22.764Z,34.50
2022-12-08T20:34:50.068Z,39.72
2022-12-08T20:37:16.871Z,42.25
2022-12-08T20:39:43.997Z,40.78
2022-12-08T20:42:14.731Z,37.67
2022-12-08T20:44:44.684Z,78.15
2022-12-08T20:47:12.257Z,59.92
2022-12-08T20:49:39.012Z,47.90
2022-12-08T20:52:06.098Z,92.90
2022-12-08T20:54:33.134Z,68.68
2022-12-08T20:57:00.548Z,56.25
2022-12-08T20:59:27.693Z,53.38
2022-12-08T21:01:57.974Z,79.32
2022-12-08T21:04:25.617Z,58.75
2022-12-08T21:06:52.809Z,46.75
2022-12-08T21:09:19.691Z,58.63
2022-12-08T21:11:46.635Z,50.33
2022-12-08T21:14:13.468Z,47.90
2022-12-08T21:16:40.406Z,47.08
2022-12-08T21:19:07.564Z,47.53
2022-12-08T21:21:34.952Z,42.72
2022-12-08T21:24:02.501Z,40.67
2022-12-08T21:26:33.164Z,43.90
2022-12-08T21:29:00.604Z,48.13
2022-12-08T21:31:32.565Z,61.80
2022-12-08T21:34:02.190Z,51.20
2022-12-08T21:36:29.249Z,52.20
2022-12-08T21:38:56.862Z,47.47
2022-12-08T21:41:38.363Z,48.53
2022-12-08T21:44:09.585Z,48.17
2022-12-08T21:46:36.789Z,43.78
2022-12-08T21:54:49.865Z,42.20
2022-12-08T21:57:16.757Z,49.20
2022-12-08T21:59:43.489Z,43.90
2022-12-08T22:02:15.638Z,40.00
2022-12-08T22:04:48.084Z,42.78
2022-12-08T22:07:15.353Z,39.58
2022-12-08T22:09:45.396Z,41.63
2022-12-08T22:12:12.346Z,41.42
2022-12-08T22:14:42.875Z,40.30
2022-12-08T22:17:09.923Z,44.47
2022-12-08T22:19:36.876Z,47.08
2022-12-08T22:22:03.964Z,47.40
2022-12-08T22:24:31.415Z,48.40
2022-12-08T22:26:58.793Z,49.17
2022-12-08T22:29:25.751Z,48.90
2022-12-08T22:31:52.540Z,45.55
2022-12-08T22:34:19.573Z,46.80
2022-12-08T22:36:49.653Z,46.40
2022-12-08T22:39:16.571Z,47.17
2022-12-08T22:41:43.482Z,45.53
2022-12-08T22:44:11.713Z,56.60
2022-12-08T22:46:38.823Z,54.85
2022-12-08T22:49:05.834Z,54.35
2022-12-08T22:51:35.494Z,56.92
2022-12-08T22:54:02.220Z,58.38
2022-12-08T22:56:29.026Z,55.22
2022-12-08T22:58:56.136Z,57.00
2022-12-08T23:01:24.101Z,54.33
2022-12-08T23:03:51.073Z,53.53
2022-12-08T23:06:18.557Z,52.40
2022-12-08T23:08:45.980Z,52.28
2022-12-08T23:11:12.958Z,53.22
2022-12-08T23:13:39.999Z,52.80
2022-12-08T23:16:24.934Z,49.95
2022-12-08T23:18:51.899Z,53.50
2022-12-08T23:21:19.121Z,50.55
2022-12-08T23:23:46.179Z,49.78
2022-12-08T23:26:33.098Z,47.85
2022-12-08T23:31:40.250Z,45.78
2022-12-08T23:34:07.366Z,44.42
2022-12-08T23:36:34.102Z,43.33
2022-12-08T23:39:23.522Z,43.78
2022-12-08T23:41:50.671Z,45.47
2022-12-08T23:44:17.750Z,43.20
2022-12-08T23:46:45.045Z,41.45
2022-12-08T23:49:12.758Z,41.40
2022-12-08T23:51:40.345Z,44.97
2022-12-08T23:54:07.639Z,43.60
2022-12-08T23:56:34.509Z,44.00
2022-12-08T23:59:01.339Z,44.63
